Burr Oak, Indiana
Current Conditions -  °F | °C
As of 4:55 PM on Monday 22 Dec 2014 (Local Time) from KGWB Reporting Station
Haze Haze  
Wind Chill: 29°   Ceiling: 7500
Heat Index: 36°   Visibility: 5mi
Dew Point: 32°   Wind: 8mph
Humidity: 87%   Direction: 90°E
Pressure: 29.85"   Gusts: NA
Location:  41.3469°N, 85.4059°W
Report Text: KGWB 222155Z AUTO 09007KT 5SM BR OVC075 02/00 A2985 RMK AO2
Loading
Personal Weather Stations






























Interactive Weather Map New forecast layout! Learn more

10-Day Weather Forecast

Advertisements
Track Severe Weather on mobile